Airfield :







YOU CAN JOIN US ON...

 
LOGIN :

Register | Disclaimer

   EN    FR    IT 

 









Legend :    VFR   Marginal VFR   IFR   Intensive IFR   Very Intensive IFR
Visi :
Ceiling :
>= 8 km
>= 3000ft
5 to 8 km
1000 to 3000 ft
1500m to 5 km
500 to 1000 ft
800 to 1500m
200 to 500 ft
< 800m
< 200 ft
Symbols :   Thunderstorms  Fog  Heavy snow  Heavy precipitations  Wind > 20 kt






- Airport Elevation : 74 ft
- IATA code : PMV


SVMG - Del Caribe Int. Gen Santiago M

CURRENT METAR :
  • 090703Z AUTO 10006KT NCD 27/26 Q1011

EXPIRED METARs :
  • 090603Z AUTO 08006KT NCD 27/26 Q1011
  • 090503Z AUTO 08007KT NCD 28/26 Q1012

TAF TAF SVMG
Valid from the 09 at 00:00 until the 10 at 00:00 UTC


082200Z 0900/1000 08008KT 9999 SCT016 TX33/0818Z TN22/0808Z
BECMG 0811/0915 08008KT 9999 SCT010 SCT080
SVZM FIR / South America



MET'MAP, your aeronautical weather chart ! - Copyright ORBIFLY December 2007 - Disclaimer

ORBIFLY MET'MAP TEAM :

Programming & Development : Alexandra Zaïnal
Original concept : Baudouin d'Aumeries
Technical & hardware support : Manuel Goepfert
Assistance : Marc-Olivier Méhu




SOURCES & CREDITS :

   NOAA